Have a Safe July 4th! 

Flight Track Log - Related Links

Times and Time Zones

All times are in EDT time to prevent confusion due to time zone crossing. See the N143DE flight status page for this flight to view local times or setup timezone preferences in your user account.

Time Position Orientation Groundspeed Altitude Reporting Facility
EDT Latitude Longitude Course Direction KTS MPH feet Rate Location/Type
Fri 05:58:58 PM 26.2483 -81.8389 358° North 184 212 7,600  Level Miami Center
Fri 05:59:58 PM 26.3003 -81.8456 353° North 178 205 9,300 1,750 Climbing Miami Center
Fri 06:00:58 PM 26.3500 -81.8522 353° North 178 205 11,100 1,650 Climbing Miami Center
Fri 06:01:58 PM 26.4022 -81.8569 355° North 178 205 12,600 1,550 Climbing Miami Center
Fri 06:02:00 PM 26.5274 -81.8118 354° North  Level FlightAware Approximate
Fri 06:02:58 PM 26.4564 -81.8544 North 178 205 14,200  Level Miami Center
Fri 06:03:58 PM 26.5000 -81.8611 352° North 178 205 15,500 1,300 Climbing Miami Center
Fri 06:04:58 PM 26.5500 -81.8631 358° North 178 205 16,800 1,200 Climbing Miami Center
Fri 06:05:58 PM 26.5981 -81.8653 358° North 178 205 17,900 1,000 Climbing Miami Center
Fri 06:06:58 PM 26.6481 -81.8672 358° North 178 205 18,800 950 Climbing Miami Center
Fri 06:07:58 PM 26.7000 -81.8719 355° North 178 205 19,800 950 Climbing Miami Center
Fri 06:08:58 PM 26.7542 -81.8742 358° North 178 205 20,700 850 Climbing Miami Center
Fri 06:09:58 PM 26.8064 -81.8764 358° North 178 205 21,500 800 Climbing Miami Center
Fri 06:10:58 PM 26.8606 -81.8786 358° North 178 205 22,300 650 Climbing Miami Center
Fri 06:11:58 PM 26.9025 -81.8783 360° North 178 205 22,800 700 Climbing Miami Center
Fri 06:12:58 PM 26.9669 -81.8856 354° North 184 212 23,700 800 Climbing Miami Center
Fri 06:13:58 PM 27.0211 -81.8833 North 184 212 24,400 700 Climbing Miami Center
Fri 06:14:58 PM 27.0756 -81.8833 360° North 184 212 25,100 650 Climbing Miami Center
Fri 06:15:58 PM 27.1336 -81.8883 356° North 184 212 25,700 500 Climbing Miami Center
Fri 06:16:58 PM 27.1900 -81.8906 358° North 189 217 26,100 200 Climbing Miami Center
Fri 06:17:58 PM 27.2503 -81.8933 358° North 201 231 26,100  Level Miami Center
Fri 06:18:58 PM 27.3089 -81.8958 358° North 219 252 26,100  Level Miami Center
Fri 06:19:58 PM 27.3750 -81.9150 346° North 238 274 26,100  Level Miami Center
Fri 06:20:58 PM 27.4494 -81.9278 351° North 238 274 26,100  Level Miami Center
Fri 06:21:58 PM 27.5181 -81.9356 354° North 243 280 26,100  Level Miami Center
Fri 06:22:58 PM 27.5825 -81.9453 352° North 248 285 26,100  Level Miami Center
Fri 06:23:58 PM 27.6508 -81.9578 351° North 248 285 26,100  Level Miami Center
Fri 06:24:58 PM 27.7256 -81.9703 352° North 248 285 26,100  Level Miami Center
Fri 06:26:39 PM 27.8442 -81.9889 352° North 249 287 26,100  Level Jacksonville Center
Fri 06:27:39 PM 27.9111 -82.0003 351° North 249 287 26,100  Level Jacksonville Center
Fri 06:28:39 PM 27.9778 -82.0114 352° North 249 287 26,100  Level Jacksonville Center
Fri 06:29:39 PM 28.0325 -82.0533 326° Northwest 236 272 26,100  Level Jacksonville Center
Fri 06:30:39 PM 28.0850 -82.0997 322° Northwest 230 265 26,100  Level Jacksonville Center
Fri 06:31:39 PM 28.1372 -82.1442 323° Northwest 235 270 26,100  Level Jacksonville Center
Fri 06:32:39 PM 28.1856 -82.1931 318° Northwest 235 270 26,100  Level Jacksonville Center
Fri 06:33:39 PM 28.2400 -82.2375 324° Northwest 235 270 26,100  Level Jacksonville Center
Fri 06:34:39 PM 28.2861 -82.2822 320° Northwest 235 270 26,100  Level Jacksonville Center
Fri 06:35:39 PM 28.3406 -82.3314 322° Northwest 235 270 26,100  Level Jacksonville Center
Fri 06:36:39 PM 28.3889 -82.3733 323° Northwest 235 270 26,100  Level Jacksonville Center
Fri 06:37:39 PM 28.4392 -82.4206 320° Northwest 235 270 26,100  Level Jacksonville Center
Fri 06:38:39 PM 28.4914 -82.4650 323° Northwest 235 270 26,100  Level Jacksonville Center
Fri 06:39:39 PM 28.5397 -82.5097 321° Northwest 235 270 26,100  Level Jacksonville Center
Fri 06:40:39 PM 28.5919 -82.5569 322° Northwest 235 270 26,100 50 Level Jacksonville Center
Fri 06:41:39 PM 28.6442 -82.6017 323° Northwest 235 270 26,200 50 Climbing Jacksonville Center
Fri 06:42:39 PM 28.6986 -82.6536 320° Northwest 235 270 26,200  Level Jacksonville Center
Fri 06:43:39 PM 28.7508 -82.6983 323° Northwest 235 270 26,200  Level Jacksonville Center
Fri 06:44:39 PM 28.7947 -82.7506 314° West 235 270 26,200  Level Jacksonville Center
Fri 06:45:39 PM 28.8239 -82.8119 298° West 230 265 26,200  Level Jacksonville Center
Fri 06:46:39 PM 28.8594 -82.8711 304° West 225 259 26,200  Level Jacksonville Center
Fri 06:47:39 PM 28.8908 -82.9328 300° West 232 267 26,200  Level Jacksonville Center
Fri 06:48:39 PM 28.9261 -82.9944 303° West 232 267 26,200  Level Jacksonville Center
Fri 06:49:39 PM 28.9594 -83.0586 301° West 232 267 26,200  Level Jacksonville Center
Fri 06:50:39 PM 28.9928 -83.1206 302° West 232 267 26,200  Level Jacksonville Center
Fri 06:51:39 PM 29.0283 -83.1847 302° West 232 267 26,200  Level Jacksonville Center
Fri 06:52:39 PM 29.0594 -83.2464 300° West 232 267 26,200  Level Jacksonville Center
Fri 06:53:39 PM 29.0925 -83.3083 301° West 232 267 26,200  Level Jacksonville Center
Fri 06:54:39 PM 29.1258 -83.3656 304° West 232 267 26,200  Level Jacksonville Center
Fri 06:55:39 PM 29.1589 -83.4322 300° West 232 267 26,200  Level Jacksonville Center
Fri 06:56:39 PM 29.1919 -83.4944 301° West 232 267 26,200  Level Jacksonville Center
Fri 06:57:39 PM 29.2272 -83.5589 302° West 232 267 26,200  Level Jacksonville Center
Fri 06:58:39 PM 29.2603 -83.6208 301° West 232 267 26,200  Level Jacksonville Center
Fri 06:59:39 PM 29.2933 -83.6831 301° West 232 267 26,200  Level Jacksonville Center
Fri 07:00:39 PM 29.3264 -83.7453 301° West 232 267 26,200  Level Jacksonville Center
Fri 07:01:39 PM 29.3592 -83.8075 301° West 232 267 26,200 -50 Level Jacksonville Center
Fri 07:02:39 PM 29.3922 -83.8722 300° West 232 267 26,100 -50 Descending Jacksonville Center
Fri 07:03:39 PM 29.4272 -83.9369 302° West 232 267 26,100  Level Jacksonville Center
Fri 07:04:39 PM 29.4581 -83.9944 302° West 232 267 26,100 50 Level Jacksonville Center
Fri 07:05:39 PM 29.4908 -84.0592 300° West 232 267 26,200 50 Climbing Jacksonville Center
Fri 07:06:39 PM 29.5236 -84.1217 301° West 227 261 26,200  Level Jacksonville Center
Fri 07:07:39 PM 29.5564 -84.1842 301° West 227 261 26,200  Level Jacksonville Center
Fri 07:08:39 PM 29.5892 -84.2467 301° West 232 267 26,200  Level Jacksonville Center
Fri 07:09:39 PM 29.6219 -84.3069 302° West 232 267 26,200  Level Jacksonville Center
Fri 07:10:39 PM 29.6547 -84.3672 302° West 232 267 26,200  Level Jacksonville Center
Fri 07:11:39 PM 29.6853 -84.4297 299° West 232 267 26,200  Level Jacksonville Center
Fri 07:12:39 PM 29.7178 -84.4900 302° West 227 261 26,200  Level Jacksonville Center
Fri 07:13:39 PM 29.7506 -84.5528 301° West 232 267 26,200  Level Jacksonville Center
Fri 07:14:39 PM 29.7831 -84.6131 302° West 232 267 26,200  Level Jacksonville Center
Fri 07:15:39 PM 29.8156 -84.6761 301° West 232 267 26,200  Level Jacksonville Center
Fri 07:16:39 PM 29.8481 -84.7411 300° West 232 267 26,200  Level Jacksonville Center
Fri 07:17:39 PM 29.8725 -84.7897 300° West 232 267 26,200  Level Jacksonville Center
Fri 07:18:39 PM 29.9131 -84.8669 301° West 232 267 26,200  Level Jacksonville Center
Fri 07:19:39 PM 29.9433 -84.9300 299° West 232 267 26,200  Level Jacksonville Center
Fri 07:20:39 PM 29.9631 -84.9953 289° West 226 260 26,200  Level Jacksonville Center
Fri 07:21:39 PM 29.9806 -85.0722 285° West 232 267 26,200  Level Jacksonville Center
Fri 07:22:39 PM 30.0003 -85.1422 288° West 232 267 26,200  Level Jacksonville Center
Fri 07:23:39 PM 30.0139 -85.2072 284° West 232 267 26,200  Level Jacksonville Center
Fri 07:24:39 PM 30.0314 -85.2772 286° West 232 267 26,200  Level Jacksonville Center
Fri 07:25:39 PM 30.0467 -85.3472 284° West 232 267 26,200  Level Jacksonville Center
Fri 07:26:39 PM 30.0617 -85.4342 281° West 236 272 26,200  Level Jacksonville Center
Fri 07:27:39 PM 30.0814 -85.4969 290° West 227 261 26,200  Level Jacksonville Center
Fri 07:28:39 PM 30.0967 -85.5647 285° West 228 262 26,200  Level Jacksonville Center
Fri 07:29:39 PM 30.1161 -85.6300 289° West 234 269 26,200  Level Jacksonville Center
Fri 07:30:39 PM 30.1311 -85.7097 282° West 234 269 26,200  Level Jacksonville Center
Fri 07:31:39 PM 30.1486 -85.7678 289° West 229 264 26,200  Level Jacksonville Center
Fri 07:32:39 PM 30.1656 -85.8381 286° West 229 264 26,200  Level Jacksonville Center
Fri 07:33:39 PM 30.1808 -85.9058 285° West 223 257 26,200  Level Jacksonville Center
Fri 07:34:39 PM 30.1958 -85.9758 284° West 223 257 26,200  Level Jacksonville Center
Fri 07:35:39 PM 30.2128 -86.0461 286° West 223 257 26,200  Level Jacksonville Center
Fri 07:36:39 PM 30.2300 -86.1164 286° West 223 257 26,200  Level Jacksonville Center
Fri 07:37:39 PM 30.2450 -86.1842 284° West 223 257 26,200  Level Jacksonville Center
Fri 07:38:39 PM 30.2619 -86.2544 286° West 223 257 26,200  Level Jacksonville Center
Fri 07:39:39 PM 30.2747 -86.3222 282° West 223 257 26,200  Level Jacksonville Center
Fri 07:40:39 PM 30.2936 -86.3928 287° West 223 257 26,200  Level Jacksonville Center
Fri 07:41:39 PM 30.3083 -86.4631 284° West 228 262 26,200  Level Jacksonville Center
Fri 07:42:39 PM 30.3253 -86.5333 286° West 228 262 26,200  Level Jacksonville Center
Fri 07:43:39 PM 30.3397 -86.6039 283° West 228 262 26,200  Level Jacksonville Center
Fri 07:44:39 PM 30.3567 -86.6719 286° West 228 262 26,200  Level Jacksonville Center
Fri 07:45:39 PM 30.3733 -86.7447 285° West 228 262 26,200  Level Jacksonville Center
Fri 07:46:39 PM 30.3878 -86.8150 283° West 228 262 26,200  Level Jacksonville Center
Fri 07:47:39 PM 30.4083 -86.8906 288° West 228 262 26,200  Level Jacksonville Center
Fri 07:48:39 PM 30.4250 -86.9636 285° West 233 268 26,200  Level Jacksonville Center
Fri 07:49:39 PM 30.4414 -87.0342 285° West 238 274 26,200  Level Jacksonville Center
Fri 07:50:39 PM 30.4556 -87.1094 282° West 238 274 26,200  Level Jacksonville Center
Fri 07:51:39 PM 30.4719 -87.1800 285° West 238 274 26,200 -250 Level Jacksonville Center
Fri 07:52:39 PM 30.4864 -87.2506 283° West 238 274 25,700 -603 Descending Jacksonville Center
Fri 07:54:48 PM 30.5233 -87.4253 284° West 253 291 24,300 -474 Descending Houston Center
Fri 07:55:49 PM 30.5411 -87.5022 285° West 248 285 24,200 -98 Descending Houston Center
Fri 07:56:51 PM 30.5606 -87.5736 288° West 234 269 24,100 -49 Descending Houston Center
Fri 07:57:52 PM 30.5781 -87.6461 286° West 232 267 24,100 -439 Level Houston Center
Fri 07:58:54 PM 30.5961 -87.7211 286° West 241 277 23,200 -927 Descending Houston Center
Fri 07:59:55 PM 30.6156 -87.7994 286° West 251 289 22,200 -976 Descending Houston Center
Fri 08:00:57 PM 30.6381 -87.8772 289° West 254 292 21,200 -976 Descending Houston Center
Fri 08:01:58 PM 30.6533 -87.9711 281° West 245 282 20,200 -878 Descending Houston Center
Fri 08:03:00 PM 30.6681 -88.0486 282° West 244 281 19,400 -927 Descending Houston Center
Fri 08:04:01 PM 30.6831 -88.1269 283° West 247 284 18,300 -1,024 Descending Houston Center
Fri 08:05:03 PM 30.6994 -88.2058 284° West 249 287 17,300 -976 Descending Houston Center
Fri 08:06:04 PM 30.7125 -88.2822 281° West 243 280 16,300 -1,073 Descending Houston Center
Fri 08:07:06 PM 30.7256 -88.3586 281° West 240 276 15,100 -1,171 Descending Houston Center
Fri 08:08:07 PM 30.6964 -88.4267 244° Southwest 233 268 13,900 -1,171 Descending Houston Center
Fri 08:09:09 PM 30.6683 -88.4903 243° Southwest 223 257 12,700 -1,317 Descending Houston Center
Fri 08:10:10 PM 30.6386 -88.5539 242° Southwest 223 257 11,200 -1,415 Descending Houston Center
Fri 08:11:12 PM 30.6083 -88.6186 241° Southwest 226 260 9,800 -1,610 Descending Houston Center
Fri 08:12:13 PM 30.5617 -88.6864 231° Southwest 226 260 7,900 -1,610 Descending Houston Center
Fri 08:13:15 PM 30.5119 -88.7311 218° Southwest 226 260 6,500 -1,210 Descending Houston Center
Fri 08:14:17 PM 30.4642 -88.7753 219° Southwest 224 258 5,400 -1,171 Descending Houston Center
Fri 08:15:18 PM 30.4225 -88.8122 217° Southwest 207 238 4,100 -1,171 Descending Houston Center
Fri 08:16:20 PM 30.3825 -88.8475 217° Southwest 188 216 3,000 -976 Descending Houston Center
Fri 08:17:21 PM 30.3414 -88.8822 216° Southwest 182 209 2,100 -488 Descending Houston Center
Fri 08:18:23 PM 30.3058 -88.9161 219° Southwest 168 193 2,000 -48 Descending Houston Center
Fri 08:19:25 PM 30.3094 -88.9522 277° West 122 140 2,000 -49 Level Houston Center
Fri 08:20:26 PM 30.3333 -88.9881 308° West 117 135 1,900 -341 Descending Houston Center
Fri 08:21:28 PM 30.3578 -89.0167 315° West 120 138 1,300 -488 Descending Houston Center
Fri 08:22:29 PM 30.3808 -89.0436 315° West 123 142 900 -488 Descending Houston Center
Fri 08:23:31 PM 30.4081 -89.0742 316° Northwest 125 144 300 -581 Descending Houston Center
Fri 08:25:00 PM 30.4073 -89.0701 103° East  Level Estimated

Login

Don't have an account? Register now (free) for customized features, flight alerts, and more!